Date,TemperatureHighF,TemperatureAvgF,TemperatureLowF,DewpointHighF,DewpointAvgF,DewpointLowF,HumidityHigh,HumidityAvg,HumidityLow,PressureMaxIn,PressureMinIn,WindSpeedMaxMPH,WindSpeedAvgMPH,GustSpeedMaxMPH,PrecipitationSumIn
2013-2-1,63,55,46,51,42,34,77,62,47,30.34,30.20,16,3,16,0.00
2013-2-2,68,58,45,57,49,39,87,74,60,30.30,30.14,12,2,12,0.00
2013-2-3,67,59,50,54,49,40,89,71,45,30.21,30.07,15,1,15,0.00
2013-2-4,68,57,45,53,47,40,88,69,52,30.15,30.03,11,2,11,0.00
2013-2-5,74,61,48,58,50,40,81,67,47,30.12,30.02,12,2,12,0.00
2013-2-6,77,66,57,68,60,53,95,81,69,30.14,30.03,15,2,15,0.00
2013-2-7,78,71,61,68,64,57,93,78,66,30.11,29.93,22,4,22,0.01
2013-2-8,78,69,64,66,63,60,92,81,59,30.09,29.89,14,2,14,0.00
2013-2-9,71,66,58,63,60,55,94,81,71,30.22,30.06,17,3,17,0.01
2013-2-10,76,70,67,62,60,57,77,69,59,30.31,30.19,21,5,21,0.00
2013-2-11,79,72,65,67,64,55,89,75,60,30.25,30.11,19,4,19,0.00
2013-2-12,84,73,62,70,66,58,95,78,54,30.14,29.97,16,3,16,0.00
2013-2-13,86,76,67,72,68,60,96,78,53,30.01,29.86,22,5,22,0.00
2013-2-14,74,66,60,68,62,59,97,87,76,30.07,29.92,13,1,13,1.21
2013-2-15,66,62,59,62,60,58,100,93,85,30.08,29.96,11,1,11,0.09
2013-2-16,69,61,50,60,51,36,97,71,44,30.10,29.89,24,4,24,0.00
2013-2-17,52,47,40,40,28,21,68,49,36,30.36,30.09,26,4,26,0.00
2013-2-18,66,54,40,53,41,26,79,62,53,30.37,30.24,18,3,18,0.00
2013-2-19,78,66,51,63,56,46,96,72,51,30.25,30.08,18,2,20,0.01
2013-2-20,71,65,57,65,60,53,95,84,76,30.15,30.05,13,2,13,0.00
2013-2-21,79,70,62,69,65,56,99,83,51,30.14,30.03,15,2,15,0.00
2013-2-22,80,73,64,73,68,60,97,86,76,30.12,30.03,20,3,21,0.00
2013-2-23,86,76,68,73,69,64,95,78,56,30.06,29.90,24,3,24,0.01
2013-2-24,86,73,68,71,68,66,95,86,55,30.01,29.91,19,3,19,0.08
2013-2-25,85,76,70,74,70,67,97,84,56,29.94,29.80,19,3,19,0.00
2013-2-26,84,77,71,73,70,66,92,81,63,29.89,29.78,30,6,30,0.00
2013-2-27,75,68,62,66,62,55,91,80,63,29.99,29.87,12,2,12,0.01
2013-2-28,74,63,53,56,52,47,88,67,47,30.03,29.89,14,2,14,0.00